Southeastern, Pennsylvania
Current Conditions -  °F | °C
As of 3:54 AM on Monday 22 Dec 2014 (Local Time) from KPHL Reporting Station
Broken Clouds Broken Clouds  
Wind Chill: 24°   Ceiling: 8500
Heat Index: 29°   Visibility: 10mi
Dew Point: 22°   Wind: 5mph
Humidity: 75%   Direction: 330°NNW
Pressure: 30.33"   Gusts: NA
Location:  39.98°N, 75.51°W
Report Text: KPHL 220854Z 33004KT 10SM SCT030 BKN085 BKN200 M02/M06 A3033 RMK AO2 SLP271 T10171056 50003
Loading
Personal Weather Stations






























Interactive Weather Map New forecast layout! Learn more

10-Day Weather Forecast

Advertisements
Track Severe Weather on mobile